sensor_id;sensor_type;location;lat;lon;timestamp;P1;durP1;ratioP1;P2;durP2;ratioP2
18445;SDS011;9352;50.888;4.466;2022-12-07T00:01:26;28.95;;;13.05;;
18445;SDS011;9352;50.888;4.466;2022-12-07T00:03:55;26.87;;;12.50;;
18445;SDS011;9352;50.888;4.466;2022-12-07T00:06:28;22.20;;;12.15;;
18445;SDS011;9352;50.888;4.466;2022-12-07T00:08:55;27.15;;;13.05;;
18445;SDS011;9352;50.888;4.466;2022-12-07T00:11:24;23.02;;;13.52;;
18445;SDS011;9352;50.888;4.466;2022-12-07T00:13:51;23.77;;;12.83;;
18445;SDS011;9352;50.888;4.466;2022-12-07T00:16:20;23.13;;;12.27;;
18445;SDS011;9352;50.888;4.466;2022-12-07T00:18:50;25.52;;;13.13;;
18445;SDS011;9352;50.888;4.466;2022-12-07T00:21:17;27.10;;;13.63;;
18445;SDS011;9352;50.888;4.466;2022-12-07T00:23:46;24.42;;;13.70;;
18445;SDS011;9352;50.888;4.466;2022-12-07T00:26:14;26.10;;;13.67;;
18445;SDS011;9352;50.888;4.466;2022-12-07T00:28:45;29.03;;;13.47;;
18445;SDS011;9352;50.888;4.466;2022-12-07T00:31:13;30.67;;;14.23;;
18445;SDS011;9352;50.888;4.466;2022-12-07T00:33:41;29.47;;;13.80;;
18445;SDS011;9352;50.888;4.466;2022-12-07T00:36:09;31.15;;;13.93;;
18445;SDS011;9352;50.888;4.466;2022-12-07T00:38:38;29.53;;;14.47;;
18445;SDS011;9352;50.888;4.466;2022-12-07T00:41:06;29.10;;;14.03;;
18445;SDS011;9352;50.888;4.466;2022-12-07T00:43:35;25.43;;;13.93;;
18445;SDS011;9352;50.888;4.466;2022-12-07T00:46:04;26.50;;;13.57;;
18445;SDS011;9352;50.888;4.466;2022-12-07T00:48:31;26.60;;;13.87;;
18445;SDS011;9352;50.888;4.466;2022-12-07T00:50:58;27.77;;;14.13;;
18445;SDS011;9352;50.888;4.466;2022-12-07T00:53:26;28.13;;;14.40;;
18445;SDS011;9352;50.888;4.466;2022-12-07T00:55:53;25.87;;;14.40;;
18445;SDS011;9352;50.888;4.466;2022-12-07T00:58:21;24.70;;;13.97;;
18445;SDS011;9352;50.888;4.466;2022-12-07T01:00:48;29.30;;;14.33;;
18445;SDS011;9352;50.888;4.466;2022-12-07T01:03:20;31.27;;;13.83;;
18445;SDS011;9352;50.888;4.466;2022-12-07T01:05:50;26.73;;;13.33;;
18445;SDS011;9352;50.888;4.466;2022-12-07T01:08:18;27.27;;;14.43;;
18445;SDS011;9352;50.888;4.466;2022-12-07T01:10:45;33.47;;;15.37;;
18445;SDS011;9352;50.888;4.466;2022-12-07T01:13:13;30.10;;;14.57;;
18445;SDS011;9352;50.888;4.466;2022-12-07T01:15:40;28.67;;;14.63;;
18445;SDS011;9352;50.888;4.466;2022-12-07T01:18:07;32.27;;;14.73;;
18445;SDS011;9352;50.888;4.466;2022-12-07T01:20:36;29.80;;;15.63;;
18445;SDS011;9352;50.888;4.466;2022-12-07T01:23:03;28.27;;;14.70;;
18445;SDS011;9352;50.888;4.466;2022-12-07T01:25:31;29.23;;;14.77;;
18445;SDS011;9352;50.888;4.466;2022-12-07T01:27:58;33.73;;;15.57;;
18445;SDS011;9352;50.888;4.466;2022-12-07T01:30:25;30.50;;;15.03;;
18445;SDS011;9352;50.888;4.466;2022-12-07T01:32:52;32.70;;;15.60;;
18445;SDS011;9352;50.888;4.466;2022-12-07T01:35:18;29.03;;;15.23;;
18445;SDS011;9352;50.888;4.466;2022-12-07T01:37:47;31.23;;;16.07;;
18445;SDS011;9352;50.888;4.466;2022-12-07T01:40:13;30.93;;;16.20;;
18445;SDS011;9352;50.888;4.466;2022-12-07T01:42:40;35.47;;;16.40;;
18445;SDS011;9352;50.888;4.466;2022-12-07T01:48:11;32.57;;;16.60;;
18445;SDS011;9352;50.888;4.466;2022-12-07T01:50:40;34.30;;;16.37;;
18445;SDS011;9352;50.888;4.466;2022-12-07T01:53:11;35.43;;;16.93;;
18445;SDS011;9352;50.888;4.466;2022-12-07T01:55:40;30.03;;;15.80;;
18445;SDS011;9352;50.888;4.466;2022-12-07T01:58:10;33.47;;;15.77;;
18445;SDS011;9352;50.888;4.466;2022-12-07T02:00:38;27.57;;;14.87;;
18445;SDS011;9352;50.888;4.466;2022-12-07T02:03:08;30.73;;;14.80;;
18445;SDS011;9352;50.888;4.466;2022-12-07T02:05:38;28.90;;;15.43;;
18445;SDS011;9352;50.888;4.466;2022-12-07T02:08:07;51.17;;;23.90;;
18445;SDS011;9352;50.888;4.466;2022-12-07T02:10:37;43.43;;;20.97;;
18445;SDS011;9352;50.888;4.466;2022-12-07T02:13:06;32.83;;;16.77;;
18445;SDS011;9352;50.888;4.466;2022-12-07T02:18:32;29.10;;;15.10;;
18445;SDS011;9352;50.888;4.466;2022-12-07T02:21:12;30.90;;;15.37;;
18445;SDS011;9352;50.888;4.466;2022-12-07T02:23:54;29.50;;;15.03;;
18445;SDS011;9352;50.888;4.466;2022-12-07T02:29:45;28.77;;;14.35;;
18445;SDS011;9352;50.888;4.466;2022-12-07T02:32:18;26.10;;;14.57;;
18445;SDS011;9352;50.888;4.466;2022-12-07T02:34:51;26.43;;;13.83;;
18445;SDS011;9352;50.888;4.466;2022-12-07T02:37:26;30.03;;;14.10;;
18445;SDS011;9352;50.888;4.466;2022-12-07T02:40:04;27.10;;;14.23;;
18445;SDS011;9352;50.888;4.466;2022-12-07T02:42:37;26.85;;;13.18;;
18445;SDS011;9352;50.888;4.466;2022-12-07T02:45:09;27.00;;;12.90;;
18445;SDS011;9352;50.888;4.466;2022-12-07T02:47:39;22.40;;;13.00;;
18445;SDS011;9352;50.888;4.466;2022-12-07T02:50:07;25.87;;;13.83;;
18445;SDS011;9352;50.888;4.466;2022-12-07T02:52:35;24.57;;;13.33;;
18445;SDS011;9352;50.888;4.466;2022-12-07T02:55:02;24.83;;;13.88;;
18445;SDS011;9352;50.888;4.466;2022-12-07T02:57:41;30.73;;;14.27;;
18445;SDS011;9352;50.888;4.466;2022-12-07T03:00:18;29.77;;;13.97;;
18445;SDS011;9352;50.888;4.466;2022-12-07T03:02:50;30.00;;;13.83;;
18445;SDS011;9352;50.888;4.466;2022-12-07T03:05:40;28.13;;;13.53;;
18445;SDS011;9352;50.888;4.466;2022-12-07T03:08:38;29.40;;;13.87;;
18445;SDS011;9352;50.888;4.466;2022-12-07T03:11:12;33.03;;;14.43;;
18445;SDS011;9352;50.888;4.466;2022-12-07T03:13:42;31.43;;;14.37;;
18445;SDS011;9352;50.888;4.466;2022-12-07T03:16:17;27.17;;;13.53;;
18445;SDS011;9352;50.888;4.466;2022-12-07T03:18:47;31.67;;;14.57;;
18445;SDS011;9352;50.888;4.466;2022-12-07T03:21:19;32.63;;;14.73;;
18445;SDS011;9352;50.888;4.466;2022-12-07T03:23:50;33.00;;;14.23;;
18445;SDS011;9352;50.888;4.466;2022-12-07T03:26:19;23.93;;;13.27;;
18445;SDS011;9352;50.888;4.466;2022-12-07T03:28:51;31.10;;;14.23;;
18445;SDS011;9352;50.888;4.466;2022-12-07T03:31:23;29.07;;;14.60;;
18445;SDS011;9352;50.888;4.466;2022-12-07T03:33:57;32.30;;;14.03;;
18445;SDS011;9352;50.888;4.466;2022-12-07T03:36:29;33.80;;;14.17;;
18445;SDS011;9352;50.888;4.466;2022-12-07T03:39:00;28.43;;;13.93;;
18445;SDS011;9352;50.888;4.466;2022-12-07T03:41:31;30.43;;;13.93;;
18445;SDS011;9352;50.888;4.466;2022-12-07T03:44:01;25.10;;;13.20;;
18445;SDS011;9352;50.888;4.466;2022-12-07T03:46:32;30.03;;;14.17;;
18445;SDS011;9352;50.888;4.466;2022-12-07T03:49:06;24.77;;;13.13;;
18445;SDS011;9352;50.888;4.466;2022-12-07T03:51:39;33.10;;;13.20;;
18445;SDS011;9352;50.888;4.466;2022-12-07T03:54:13;32.53;;;13.50;;
18445;SDS011;9352;50.888;4.466;2022-12-07T03:56:45;32.53;;;14.10;;
18445;SDS011;9352;50.888;4.466;2022-12-07T03:59:13;25.57;;;13.67;;
18445;SDS011;9352;50.888;4.466;2022-12-07T04:01:43;30.80;;;14.20;;
18445;SDS011;9352;50.888;4.466;2022-12-07T04:04:11;31.23;;;14.30;;
18445;SDS011;9352;50.888;4.466;2022-12-07T04:06:38;27.47;;;13.43;;
18445;SDS011;9352;50.888;4.466;2022-12-07T04:09:05;31.70;;;14.73;;
18445;SDS011;9352;50.888;4.466;2022-12-07T04:11:32;26.73;;;13.70;;
18445;SDS011;9352;50.888;4.466;2022-12-07T04:13:59;30.67;;;14.13;;
18445;SDS011;9352;50.888;4.466;2022-12-07T04:16:45;28.10;;;13.87;;
18445;SDS011;9352;50.888;4.466;2022-12-07T04:19:12;34.67;;;14.10;;
18445;SDS011;9352;50.888;4.466;2022-12-07T04:21:39;29.50;;;14.43;;
18445;SDS011;9352;50.888;4.466;2022-12-07T04:24:06;26.90;;;14.60;;
18445;SDS011;9352;50.888;4.466;2022-12-07T04:26:33;28.30;;;13.73;;
18445;SDS011;9352;50.888;4.466;2022-12-07T04:29:00;30.13;;;14.77;;
18445;SDS011;9352;50.888;4.466;2022-12-07T04:31:27;32.17;;;14.30;;
18445;SDS011;9352;50.888;4.466;2022-12-07T04:33:56;36.20;;;14.83;;
18445;SDS011;9352;50.888;4.466;2022-12-07T04:36:22;28.67;;;14.90;;
18445;SDS011;9352;50.888;4.466;2022-12-07T04:38:49;32.43;;;14.87;;
18445;SDS011;9352;50.888;4.466;2022-12-07T04:41:18;28.50;;;14.17;;
18445;SDS011;9352;50.888;4.466;2022-12-07T04:43:51;32.90;;;14.30;;
18445;SDS011;9352;50.888;4.466;2022-12-07T04:46:19;29.33;;;13.70;;
18445;SDS011;9352;50.888;4.466;2022-12-07T04:48:46;31.50;;;15.30;;
18445;SDS011;9352;50.888;4.466;2022-12-07T04:51:14;33.60;;;15.10;;
18445;SDS011;9352;50.888;4.466;2022-12-07T04:53:44;33.53;;;14.23;;
18445;SDS011;9352;50.888;4.466;2022-12-07T04:56:11;26.47;;;14.37;;
18445;SDS011;9352;50.888;4.466;2022-12-07T04:58:38;30.37;;;15.47;;
18445;SDS011;9352;50.888;4.466;2022-12-07T05:01:05;30.33;;;14.07;;
18445;SDS011;9352;50.888;4.466;2022-12-07T05:03:32;30.37;;;14.40;;
18445;SDS011;9352;50.888;4.466;2022-12-07T05:05:58;29.30;;;14.63;;
18445;SDS011;9352;50.888;4.466;2022-12-07T05:08:27;31.93;;;15.03;;
18445;SDS011;9352;50.888;4.466;2022-12-07T05:10:54;27.43;;;15.20;;
18445;SDS011;9352;50.888;4.466;2022-12-07T05:13:21;31.73;;;15.43;;
18445;SDS011;9352;50.888;4.466;2022-12-07T05:15:48;34.17;;;15.20;;
18445;SDS011;9352;50.888;4.466;2022-12-07T05:18:15;35.00;;;15.53;;
18445;SDS011;9352;50.888;4.466;2022-12-07T05:20:42;29.10;;;15.17;;
18445;SDS011;9352;50.888;4.466;2022-12-07T05:23:10;33.53;;;16.37;;
18445;SDS011;9352;50.888;4.466;2022-12-07T05:25:39;35.70;;;15.90;;
18445;SDS011;9352;50.888;4.466;2022-12-07T05:28:06;35.93;;;15.53;;
18445;SDS011;9352;50.888;4.466;2022-12-07T05:30:32;31.30;;;15.37;;
18445;SDS011;9352;50.888;4.466;2022-12-07T05:32:59;33.77;;;15.73;;
18445;SDS011;9352;50.888;4.466;2022-12-07T05:35:27;32.73;;;14.77;;
18445;SDS011;9352;50.888;4.466;2022-12-07T05:37:54;27.70;;;14.37;;
18445;SDS011;9352;50.888;4.466;2022-12-07T05:40:22;28.93;;;14.07;;
18445;SDS011;9352;50.888;4.466;2022-12-07T05:42:50;32.13;;;14.80;;
18445;SDS011;9352;50.888;4.466;2022-12-07T05:45:17;26.13;;;13.67;;
18445;SDS011;9352;50.888;4.466;2022-12-07T05:47:44;29.50;;;13.93;;
18445;SDS011;9352;50.888;4.466;2022-12-07T05:50:11;28.43;;;13.73;;
18445;SDS011;9352;50.888;4.466;2022-12-07T05:52:38;24.83;;;13.53;;
18445;SDS011;9352;50.888;4.466;2022-12-07T05:55:05;28.13;;;14.20;;
18445;SDS011;9352;50.888;4.466;2022-12-07T05:57:33;32.20;;;13.70;;
18445;SDS011;9352;50.888;4.466;2022-12-07T06:00:02;26.07;;;13.30;;
18445;SDS011;9352;50.888;4.466;2022-12-07T06:02:28;28.60;;;11.83;;
18445;SDS011;9352;50.888;4.466;2022-12-07T06:04:55;31.07;;;12.73;;
18445;SDS011;9352;50.888;4.466;2022-12-07T06:07:22;27.67;;;13.63;;
18445;SDS011;9352;50.888;4.466;2022-12-07T06:09:49;25.70;;;12.77;;
18445;SDS011;9352;50.888;4.466;2022-12-07T06:12:16;33.10;;;12.60;;
18445;SDS011;9352;50.888;4.466;2022-12-07T06:15:01;21.60;;;11.77;;
18445;SDS011;9352;50.888;4.466;2022-12-07T06:17:28;21.57;;;11.37;;
18445;SDS011;9352;50.888;4.466;2022-12-07T06:19:55;25.93;;;12.33;;
18445;SDS011;9352;50.888;4.466;2022-12-07T06:22:22;24.70;;;11.83;;
18445;SDS011;9352;50.888;4.466;2022-12-07T06:24:49;22.03;;;11.03;;
18445;SDS011;9352;50.888;4.466;2022-12-07T06:27:19;26.37;;;11.47;;
18445;SDS011;9352;50.888;4.466;2022-12-07T06:29:46;29.77;;;11.03;;
18445;SDS011;9352;50.888;4.466;2022-12-07T06:32:14;24.10;;;11.90;;
18445;SDS011;9352;50.888;4.466;2022-12-07T06:34:41;26.60;;;11.20;;
18445;SDS011;9352;50.888;4.466;2022-12-07T06:37:08;21.13;;;11.00;;
18445;SDS011;9352;50.888;4.466;2022-12-07T06:39:35;20.53;;;11.23;;
18445;SDS011;9352;50.888;4.466;2022-12-07T06:42:02;30.40;;;12.10;;
18445;SDS011;9352;50.888;4.466;2022-12-07T06:44:29;26.37;;;11.13;;
18445;SDS011;9352;50.888;4.466;2022-12-07T06:46:55;22.53;;;11.70;;
18445;SDS011;9352;50.888;4.466;2022-12-07T06:49:24;25.90;;;11.33;;
18445;SDS011;9352;50.888;4.466;2022-12-07T06:51:51;21.00;;;10.30;;
18445;SDS011;9352;50.888;4.466;2022-12-07T06:54:18;22.27;;;11.10;;
18445;SDS011;9352;50.888;4.466;2022-12-07T06:56:45;26.53;;;11.73;;
18445;SDS011;9352;50.888;4.466;2022-12-07T06:59:11;23.07;;;10.57;;
18445;SDS011;9352;50.888;4.466;2022-12-07T07:01:38;24.47;;;10.83;;
18445;SDS011;9352;50.888;4.466;2022-12-07T07:04:05;24.53;;;12.37;;
18445;SDS011;9352;50.888;4.466;2022-12-07T07:06:34;23.40;;;11.10;;
18445;SDS011;9352;50.888;4.466;2022-12-07T07:09:01;25.67;;;11.17;;
18445;SDS011;9352;50.888;4.466;2022-12-07T07:11:28;24.90;;;11.50;;
18445;SDS011;9352;50.888;4.466;2022-12-07T07:13:54;23.20;;;10.90;;
18445;SDS011;9352;50.888;4.466;2022-12-07T07:16:27;29.97;;;12.03;;
18445;SDS011;9352;50.888;4.466;2022-12-07T07:18:54;26.73;;;12.43;;
18445;SDS011;9352;50.888;4.466;2022-12-07T07:21:21;31.37;;;12.53;;
18445;SDS011;9352;50.888;4.466;2022-12-07T07:23:49;34.67;;;14.52;;
18445;SDS011;9352;50.888;4.466;2022-12-07T07:26:17;42.17;;;17.83;;
18445;SDS011;9352;50.888;4.466;2022-12-07T07:28:44;40.90;;;18.83;;
18445;SDS011;9352;50.888;4.466;2022-12-07T07:31:11;48.57;;;20.77;;
18445;SDS011;9352;50.888;4.466;2022-12-07T07:33:38;43.60;;;17.97;;
18445;SDS011;9352;50.888;4.466;2022-12-07T07:36:05;38.90;;;14.80;;
18445;SDS011;9352;50.888;4.466;2022-12-07T07:38:32;31.63;;;13.60;;
18445;SDS011;9352;50.888;4.466;2022-12-07T07:41:01;27.30;;;11.83;;
18445;SDS011;9352;50.888;4.466;2022-12-07T07:43:28;26.13;;;12.30;;
18445;SDS011;9352;50.888;4.466;2022-12-07T07:45:54;29.53;;;13.03;;
18445;SDS011;9352;50.888;4.466;2022-12-07T07:48:21;26.87;;;12.00;;
18445;SDS011;9352;50.888;4.466;2022-12-07T07:50:50;26.27;;;12.20;;
18445;SDS011;9352;50.888;4.466;2022-12-07T07:53:17;25.70;;;12.03;;
18445;SDS011;9352;50.888;4.466;2022-12-07T07:55:49;25.73;;;12.23;;
18445;SDS011;9352;50.888;4.466;2022-12-07T07:58:18;25.67;;;12.30;;
18445;SDS011;9352;50.888;4.466;2022-12-07T08:00:46;31.87;;;11.90;;
18445;SDS011;9352;50.888;4.466;2022-12-07T08:03:13;27.13;;;12.40;;
18445;SDS011;9352;50.888;4.466;2022-12-07T08:05:40;26.03;;;12.77;;
18445;SDS011;9352;50.888;4.466;2022-12-07T08:08:06;29.13;;;13.37;;
18445;SDS011;9352;50.888;4.466;2022-12-07T08:10:33;32.13;;;13.53;;
18445;SDS011;9352;50.888;4.466;2022-12-07T08:13:02;28.27;;;12.57;;
18445;SDS011;9352;50.888;4.466;2022-12-07T08:15:40;38.07;;;15.47;;
18445;SDS011;9352;50.888;4.466;2022-12-07T08:18:08;50.70;;;19.97;;
18445;SDS011;9352;50.888;4.466;2022-12-07T08:20:36;36.83;;;17.23;;
18445;SDS011;9352;50.888;4.466;2022-12-07T08:23:04;30.00;;;13.53;;
18445;SDS011;9352;50.888;4.466;2022-12-07T08:25:32;27.70;;;13.10;;
18445;SDS011;9352;50.888;4.466;2022-12-07T08:27:59;29.50;;;12.60;;
18445;SDS011;9352;50.888;4.466;2022-12-07T08:30:27;23.63;;;12.17;;
18445;SDS011;9352;50.888;4.466;2022-12-07T08:32:56;32.67;;;11.97;;
18445;SDS011;9352;50.888;4.466;2022-12-07T08:35:23;23.47;;;11.53;;
18445;SDS011;9352;50.888;4.466;2022-12-07T08:37:51;26.07;;;11.20;;
18445;SDS011;9352;50.888;4.466;2022-12-07T08:40:18;21.50;;;10.97;;
18445;SDS011;9352;50.888;4.466;2022-12-07T08:42:48;23.27;;;11.80;;
18445;SDS011;9352;50.888;4.466;2022-12-07T08:45:15;29.83;;;13.53;;
18445;SDS011;9352;50.888;4.466;2022-12-07T08:47:44;22.03;;;10.60;;
18445;SDS011;9352;50.888;4.466;2022-12-07T08:50:14;20.63;;;10.63;;
18445;SDS011;9352;50.888;4.466;2022-12-07T08:52:42;25.70;;;11.33;;
18445;SDS011;9352;50.888;4.466;2022-12-07T08:55:10;20.45;;;9.50;;
18445;SDS011;9352;50.888;4.466;2022-12-07T08:57:38;18.97;;;9.80;;
18445;SDS011;9352;50.888;4.466;2022-12-07T09:00:08;28.47;;;10.97;;
18445;SDS011;9352;50.888;4.466;2022-12-07T09:02:35;22.23;;;9.07;;
18445;SDS011;9352;50.888;4.466;2022-12-07T09:05:03;14.80;;;7.75;;
18445;SDS011;9352;50.888;4.466;2022-12-07T09:07:31;15.77;;;7.88;;
18445;SDS011;9352;50.888;4.466;2022-12-07T09:09:59;16.03;;;7.97;;
18445;SDS011;9352;50.888;4.466;2022-12-07T09:12:26;19.57;;;7.53;;
18445;SDS011;9352;50.888;4.466;2022-12-07T09:14:53;16.87;;;7.00;;
18445;SDS011;9352;50.888;4.466;2022-12-07T09:17:20;18.60;;;7.32;;
18445;SDS011;9352;50.888;4.466;2022-12-07T09:19:47;14.17;;;6.87;;
18445;SDS011;9352;50.888;4.466;2022-12-07T09:22:14;14.80;;;6.57;;
18445;SDS011;9352;50.888;4.466;2022-12-07T09:24:42;14.67;;;6.40;;
18445;SDS011;9352;50.888;4.466;2022-12-07T09:27:10;15.33;;;6.80;;
18445;SDS011;9352;50.888;4.466;2022-12-07T09:29:37;14.70;;;6.32;;
18445;SDS011;9352;50.888;4.466;2022-12-07T09:32:04;10.43;;;6.05;;
18445;SDS011;9352;50.888;4.466;2022-12-07T09:34:31;17.00;;;6.70;;
18445;SDS011;9352;50.888;4.466;2022-12-07T09:37:00;14.73;;;7.25;;
18445;SDS011;9352;50.888;4.466;2022-12-07T09:39:28;17.67;;;7.55;;
18445;SDS011;9352;50.888;4.466;2022-12-07T09:41:56;17.43;;;7.27;;
18445;SDS011;9352;50.888;4.466;2022-12-07T09:44:25;16.17;;;7.50;;
18445;SDS011;9352;50.888;4.466;2022-12-07T09:46:54;18.00;;;7.75;;
18445;SDS011;9352;50.888;4.466;2022-12-07T09:49:22;18.17;;;7.63;;
18445;SDS011;9352;50.888;4.466;2022-12-07T09:51:59;22.27;;;7.70;;
18445;SDS011;9352;50.888;4.466;2022-12-07T09:54:28;20.85;;;8.05;;
18445;SDS011;9352;50.888;4.466;2022-12-07T09:56:57;19.07;;;8.57;;
18445;SDS011;9352;50.888;4.466;2022-12-07T09:59:25;19.55;;;8.35;;
18445;SDS011;9352;50.888;4.466;2022-12-07T10:01:52;16.40;;;7.97;;
18445;SDS011;9352;50.888;4.466;2022-12-07T10:04:20;19.77;;;8.18;;
18445;SDS011;9352;50.888;4.466;2022-12-07T10:06:49;17.90;;;8.15;;
18445;SDS011;9352;50.888;4.466;2022-12-07T10:09:18;23.50;;;8.27;;
18445;SDS011;9352;50.888;4.466;2022-12-07T10:12:00;20.45;;;7.80;;
18445;SDS011;9352;50.888;4.466;2022-12-07T10:14:28;16.85;;;7.95;;
18445;SDS011;9352;50.888;4.466;2022-12-07T10:16:57;17.58;;;7.35;;
18445;SDS011;9352;50.888;4.466;2022-12-07T10:19:25;25.45;;;7.85;;
18445;SDS011;9352;50.888;4.466;2022-12-07T10:22:03;33.53;;;8.02;;
18445;SDS011;9352;50.888;4.466;2022-12-07T10:24:35;16.30;;;7.75;;
18445;SDS011;9352;50.888;4.466;2022-12-07T10:27:09;19.75;;;7.88;;
18445;SDS011;9352;50.888;4.466;2022-12-07T10:29:46;31.67;;;7.95;;
18445;SDS011;9352;50.888;4.466;2022-12-07T10:32:26;24.30;;;7.53;;
18445;SDS011;9352;50.888;4.466;2022-12-07T10:35:15;36.38;;;7.75;;
18445;SDS011;9352;50.888;4.466;2022-12-07T10:37:47;18.75;;;7.70;;
18445;SDS011;9352;50.888;4.466;2022-12-07T10:40:24;20.67;;;6.97;;
18445;SDS011;9352;50.888;4.466;2022-12-07T10:43:01;18.23;;;7.38;;
18445;SDS011;9352;50.888;4.466;2022-12-07T10:45:30;14.15;;;6.85;;
18445;SDS011;9352;50.888;4.466;2022-12-07T10:47:59;22.80;;;8.15;;
18445;SDS011;9352;50.888;4.466;2022-12-07T10:50:41;15.02;;;7.57;;
18445;SDS011;9352;50.888;4.466;2022-12-07T10:53:28;20.50;;;8.20;;
18445;SDS011;9352;50.888;4.466;2022-12-07T10:56:11;13.10;;;7.07;;
18445;SDS011;9352;50.888;4.466;2022-12-07T10:59:16;16.95;;;8.00;;
18445;SDS011;9352;50.888;4.466;2022-12-07T11:01:57;17.27;;;7.65;;
18445;SDS011;9352;50.888;4.466;2022-12-07T11:04:37;17.55;;;7.00;;
18445;SDS011;9352;50.888;4.466;2022-12-07T11:07:13;14.50;;;7.40;;
18445;SDS011;9352;50.888;4.466;2022-12-07T11:10:00;16.55;;;6.85;;
18445;SDS011;9352;50.888;4.466;2022-12-07T11:12:36;17.65;;;6.38;;
18445;SDS011;9352;50.888;4.466;2022-12-07T11:15:24;12.88;;;6.38;;
18445;SDS011;9352;50.888;4.466;2022-12-07T11:17:55;12.82;;;5.80;;
18445;SDS011;9352;50.888;4.466;2022-12-07T11:20:40;13.77;;;5.63;;
18445;SDS011;9352;50.888;4.466;2022-12-07T11:23:13;9.27;;;5.10;;
18445;SDS011;9352;50.888;4.466;2022-12-07T11:25:49;12.48;;;5.72;;
18445;SDS011;9352;50.888;4.466;2022-12-07T11:28:24;13.63;;;6.00;;
18445;SDS011;9352;50.888;4.466;2022-12-07T11:31:05;11.18;;;5.85;;
18445;SDS011;9352;50.888;4.466;2022-12-07T11:33:40;12.30;;;5.88;;
18445;SDS011;9352;50.888;4.466;2022-12-07T11:36:17;14.02;;;6.43;;
18445;SDS011;9352;50.888;4.466;2022-12-07T11:39:02;14.77;;;6.45;;
18445;SDS011;9352;50.888;4.466;2022-12-07T11:41:42;12.93;;;5.80;;
18445;SDS011;9352;50.888;4.466;2022-12-07T11:44:14;16.30;;;5.50;;
18445;SDS011;9352;50.888;4.466;2022-12-07T11:46:55;10.60;;;5.20;;
18445;SDS011;9352;50.888;4.466;2022-12-07T11:49:30;11.13;;;5.15;;
18445;SDS011;9352;50.888;4.466;2022-12-07T11:52:06;21.73;;;6.00;;
18445;SDS011;9352;50.888;4.466;2022-12-07T11:54:41;16.92;;;5.50;;
18445;SDS011;9352;50.888;4.466;2022-12-07T11:57:12;10.40;;;5.10;;
18445;SDS011;9352;50.888;4.466;2022-12-07T11:59:45;8.98;;;5.20;;
18445;SDS011;9352;50.888;4.466;2022-12-07T12:02:19;14.60;;;4.93;;
18445;SDS011;9352;50.888;4.466;2022-12-07T12:04:51;11.27;;;4.88;;
18445;SDS011;9352;50.888;4.466;2022-12-07T12:07:25;15.50;;;4.75;;
18445;SDS011;9352;50.888;4.466;2022-12-07T12:09:54;10.40;;;4.60;;
18445;SDS011;9352;50.888;4.466;2022-12-07T12:15:29;9.25;;;4.47;;
18445;SDS011;9352;50.888;4.466;2022-12-07T12:21:19;13.88;;;5.32;;
18445;SDS011;9352;50.888;4.466;2022-12-07T12:23:55;9.27;;;4.32;;
18445;SDS011;9352;50.888;4.466;2022-12-07T12:26:25;9.38;;;4.28;;
18445;SDS011;9352;50.888;4.466;2022-12-07T12:28:55;10.13;;;4.03;;
18445;SDS011;9352;50.888;4.466;2022-12-07T12:31:32;9.90;;;4.25;;
18445;SDS011;9352;50.888;4.466;2022-12-07T12:34:04;7.57;;;3.70;;
18445;SDS011;9352;50.888;4.466;2022-12-07T12:36:57;11.02;;;3.70;;
18445;SDS011;9352;50.888;4.466;2022-12-07T12:39:24;10.80;;;4.00;;
18445;SDS011;9352;50.888;4.466;2022-12-07T12:41:55;7.72;;;3.30;;
18445;SDS011;9352;50.888;4.466;2022-12-07T12:47:53;12.52;;;3.47;;
18445;SDS011;9352;50.888;4.466;2022-12-07T12:50:24;13.65;;;3.75;;
18445;SDS011;9352;50.888;4.466;2022-12-07T12:53:00;8.95;;;3.08;;
18445;SDS011;9352;50.888;4.466;2022-12-07T12:58:43;10.13;;;2.95;;
18445;SDS011;9352;50.888;4.466;2022-12-07T13:04:17;8.98;;;3.30;;
18445;SDS011;9352;50.888;4.466;2022-12-07T13:06:51;8.20;;;2.28;;
18445;SDS011;9352;50.888;4.466;2022-12-07T13:09:20;6.20;;;2.15;;
18445;SDS011;9352;50.888;4.466;2022-12-07T13:11:55;3.95;;;2.13;;
18445;SDS011;9352;50.888;4.466;2022-12-07T13:14:37;7.35;;;2.75;;
18445;SDS011;9352;50.888;4.466;2022-12-07T13:17:08;4.68;;;2.33;;
18445;SDS011;9352;50.888;4.466;2022-12-07T13:22:39;5.80;;;2.38;;
18445;SDS011;9352;50.888;4.466;2022-12-07T13:25:10;4.38;;;2.13;;
18445;SDS011;9352;50.888;4.466;2022-12-07T13:27:39;10.27;;;2.60;;
18445;SDS011;9352;50.888;4.466;2022-12-07T13:30:13;7.47;;;2.28;;
18445;SDS011;9352;50.888;4.466;2022-12-07T13:32:41;10.27;;;2.47;;
18445;SDS011;9352;50.888;4.466;2022-12-07T13:35:29;10.38;;;2.35;;
18445;SDS011;9352;50.888;4.466;2022-12-07T13:37:58;5.82;;;2.50;;
18445;SDS011;9352;50.888;4.466;2022-12-07T13:40:28;3.78;;;2.00;;
18445;SDS011;9352;50.888;4.466;2022-12-07T13:42:58;5.40;;;2.28;;
18445;SDS011;9352;50.888;4.466;2022-12-07T13:45:27;4.53;;;2.03;;
18445;SDS011;9352;50.888;4.466;2022-12-07T13:48:14;2.30;;;2.10;;
18445;SDS011;9352;50.888;4.466;2022-12-07T13:50:51;6.88;;;2.45;;
18445;SDS011;9352;50.888;4.466;2022-12-07T13:53:20;6.53;;;2.45;;
18445;SDS011;9352;50.888;4.466;2022-12-07T13:55:47;7.60;;;2.55;;
18445;SDS011;9352;50.888;4.466;2022-12-07T13:58:14;6.95;;;2.80;;
18445;SDS011;9352;50.888;4.466;2022-12-07T14:00:42;10.77;;;3.95;;
18445;SDS011;9352;50.888;4.466;2022-12-07T14:03:25;9.88;;;3.05;;
18445;SDS011;9352;50.888;4.466;2022-12-07T14:06:06;4.53;;;2.30;;
18445;SDS011;9352;50.888;4.466;2022-12-07T14:08:41;6.00;;;2.40;;
18445;SDS011;9352;50.888;4.466;2022-12-07T14:11:09;5.55;;;2.40;;
18445;SDS011;9352;50.888;4.466;2022-12-07T14:13:40;3.40;;;2.50;;
18445;SDS011;9352;50.888;4.466;2022-12-07T14:16:22;5.32;;;2.47;;
18445;SDS011;9352;50.888;4.466;2022-12-07T14:18:52;4.63;;;3.17;;
18445;SDS011;9352;50.888;4.466;2022-12-07T14:21:20;3.65;;;2.80;;
18445;SDS011;9352;50.888;4.466;2022-12-07T14:24:07;3.92;;;3.20;;
18445;SDS011;9352;50.888;4.466;2022-12-07T14:26:37;5.20;;;3.08;;
18445;SDS011;9352;50.888;4.466;2022-12-07T14:32:16;4.40;;;3.10;;
18445;SDS011;9352;50.888;4.466;2022-12-07T14:34:53;5.95;;;2.70;;
18445;SDS011;9352;50.888;4.466;2022-12-07T14:37:28;4.70;;;3.08;;
18445;SDS011;9352;50.888;4.466;2022-12-07T14:39:57;3.97;;;2.70;;
18445;SDS011;9352;50.888;4.466;2022-12-07T14:42:26;3.83;;;3.00;;
18445;SDS011;9352;50.888;4.466;2022-12-07T14:44:54;5.05;;;3.00;;
18445;SDS011;9352;50.888;4.466;2022-12-07T14:47:22;5.80;;;3.28;;
18445;SDS011;9352;50.888;4.466;2022-12-07T14:49:49;5.68;;;3.60;;
18445;SDS011;9352;50.888;4.466;2022-12-07T14:52:17;5.70;;;4.25;;
18445;SDS011;9352;50.888;4.466;2022-12-07T14:54:46;8.65;;;4.75;;
18445;SDS011;9352;50.888;4.466;2022-12-07T14:57:14;9.75;;;4.68;;
18445;SDS011;9352;50.888;4.466;2022-12-07T14:59:41;9.10;;;5.30;;
18445;SDS011;9352;50.888;4.466;2022-12-07T15:02:09;16.48;;;6.43;;
18445;SDS011;9352;50.888;4.466;2022-12-07T15:04:37;8.98;;;5.00;;
18445;SDS011;9352;50.888;4.466;2022-12-07T15:07:05;10.10;;;5.07;;
18445;SDS011;9352;50.888;4.466;2022-12-07T15:09:38;10.20;;;5.63;;
18445;SDS011;9352;50.888;4.466;2022-12-07T15:12:05;13.25;;;6.72;;
18445;SDS011;9352;50.888;4.466;2022-12-07T15:14:34;7.85;;;4.70;;
18445;SDS011;9352;50.888;4.466;2022-12-07T15:17:00;5.32;;;4.55;;
18445;SDS011;9352;50.888;4.466;2022-12-07T15:19:27;12.23;;;4.85;;
18445;SDS011;9352;50.888;4.466;2022-12-07T15:21:54;6.40;;;4.57;;
18445;SDS011;9352;50.888;4.466;2022-12-07T15:24:22;9.20;;;4.75;;
18445;SDS011;9352;50.888;4.466;2022-12-07T15:26:50;7.13;;;4.57;;
18445;SDS011;9352;50.888;4.466;2022-12-07T15:29:19;9.68;;;4.05;;
18445;SDS011;9352;50.888;4.466;2022-12-07T15:31:50;13.80;;;4.28;;
18445;SDS011;9352;50.888;4.466;2022-12-07T15:34:17;6.72;;;3.38;;